Time;durP1;ratioP1;P1;durP2;ratioP2;P2;SDS_P1;SDS_P2;PMS_P1;PMS_P2;Temp;Humidity;BMP_temperature;BMP_pressure;BME280_temperature;BME280_humidity;BME280_pressure;Samples;Min_cycle;Max_cycle;Signal;HPM_P1;HPM_P2
2022/05/02 00:00:33;;;;;;;14.35;11.93;;;8.90;99.90;;;;;;5032335;28;20393;-53
2022/05/02 00:02:59;;;;;;;13.85;10.98;;;8.90;99.90;;;;;;5032467;28;20022;-54
2022/05/02 00:05:27;;;;;;;12.07;10.77;;;8.90;99.90;;;;;;5032318;28;20037;-54
2022/05/02 00:07:52;;;;;;;16.17;12.27;;;8.90;99.90;;;;;;5032453;28;20097;-53
2022/05/02 00:10:18;;;;;;;14.77;13.27;;;9.00;99.90;;;;;;5032262;28;20022;-52
2022/05/02 00:12:44;;;;;;;17.80;14.02;;;9.10;99.90;;;;;;5032223;28;20052;-54
2022/05/02 00:15:10;;;;;;;14.98;13.35;;;9.10;99.90;;;;;;5032123;28;20057;-49
2022/05/02 00:20:20;;;;;;;16.33;14.18;;;9.10;99.90;;;;;;5032016;28;20488;-52
2022/05/02 00:22:46;;;;;;;18.65;13.27;;;9.10;99.90;;;;;;5032012;28;20030;-51
2022/05/02 00:25:19;;;;;;;15.57;13.95;;;9.10;99.90;;;;;;5032066;28;20029;-53
2022/05/02 00:27:44;;;;;;;17.50;14.02;;;9.10;99.90;;;;;;5030594;28;20480;-54
2022/05/02 00:30:12;;;;;;;17.35;14.98;;;9.10;99.90;;;;;;5032060;28;20096;-50
2022/05/02 00:32:39;;;;;;;15.25;13.65;;;9.10;99.90;;;;;;5031788;28;20055;-51
2022/05/02 00:35:06;;;;;;;13.60;11.55;;;9.10;99.90;;;;;;5030695;28;20519;-52
2022/05/02 00:37:32;;;;;;;13.07;11.77;;;9.10;99.90;;;;;;5030603;28;20044;-55
2022/05/02 00:39:57;;;;;;;12.15;11.00;;;9.10;99.90;;;;;;5030466;28;20025;-51
2022/05/02 00:42:23;;;;;;;21.17;13.85;;;9.10;99.90;;;;;;5031597;28;20036;-57
2022/05/02 00:44:49;;;;;;;14.25;12.35;;;9.10;99.90;;;;;;5030625;28;20036;-56
2022/05/02 00:47:20;;;;;;;15.38;13.05;;;9.00;99.90;;;;;;5031873;28;20033;-52
2022/05/02 00:49:47;;;;;;;14.40;12.90;;;9.00;99.90;;;;;;5031486;28;20021;-53
2022/05/02 00:52:13;;;;;;;14.20;12.70;;;8.90;99.90;;;;;;5031880;28;20151;-56
2022/05/02 00:54:39;;;;;;;17.10;12.45;;;8.90;99.90;;;;;;5031336;28;20113;-55
2022/05/02 00:57:07;;;;;;;15.25;12.48;;;8.80;99.90;;;;;;5031454;28;20025;-56
2022/05/02 00:59:36;;;;;;;12.18;10.88;;;8.80;99.90;;;;;;5030593;28;20029;-50
2022/05/02 01:02:03;;;;;;;14.15;12.75;;;8.70;99.90;;;;;;5030673;28;20029;-51
2022/05/02 01:04:29;;;;;;;14.13;10.73;;;8.70;99.90;;;;;;5030241;28;20026;-55
2022/05/02 01:07:10;;;;;;;13.20;11.80;;;8.70;99.90;;;;;;5030472;28;20158;-52
2022/05/02 01:09:56;;;;;;;14.27;11.10;;;8.70;99.90;;;;;;5030088;28;20034;-51
2022/05/02 01:12:24;;;;;;;14.13;12.35;;;8.70;99.90;;;;;;5030074;28;20488;-54
2022/05/02 01:14:54;;;;;;;22.27;12.63;;;8.70;99.90;;;;;;5029612;28;20504;-51
2022/05/02 01:17:20;;;;;;;14.75;12.38;;;8.70;99.90;;;;;;5030445;28;20033;-53
2022/05/02 01:19:47;;;;;;;16.70;11.85;;;8.80;99.90;;;;;;5030832;28;20022;-53
2022/05/02 01:22:13;;;;;;;14.85;11.68;;;8.90;99.90;;;;;;5030709;28;20029;-51
2022/05/02 01:24:44;;;;;;;12.82;10.82;;;8.90;99.90;;;;;;5030849;28;20098;-48
2022/05/02 01:27:11;;;;;;;15.00;12.90;;;8.80;99.90;;;;;;5031333;28;20017;-53
2022/05/02 01:29:38;;;;;;;13.48;12.07;;;8.80;99.90;;;;;;5030865;28;20037;-48
2022/05/02 01:32:13;;;;;;;18.20;12.85;;;8.70;99.90;;;;;;5031186;28;20033;-55
2022/05/02 01:34:45;;;;;;;18.45;12.88;;;8.70;99.90;;;;;;5031109;28;20026;-52
2022/05/02 01:37:13;;;;;;;13.35;11.95;;;8.70;99.90;;;;;;5031523;28;20025;-51
2022/05/02 01:39:39;;;;;;;16.90;12.95;;;8.70;99.90;;;;;;5031007;28;20034;-52
2022/05/02 01:42:07;;;;;;;14.80;13.25;;;8.70;99.90;;;;;;5031293;28;20029;-49
2022/05/02 01:44:34;;;;;;;16.30;14.60;;;8.70;99.90;;;;;;5031178;28;20053;-50
2022/05/02 01:47:00;;;;;;;30.50;13.23;;;8.70;99.90;;;;;;5031087;28;20017;-52
2022/05/02 01:49:25;;;;;;;17.70;12.80;;;8.80;99.90;;;;;;5030863;28;20075;-52
2022/05/02 01:51:51;;;;;;;14.55;13.02;;;8.80;99.90;;;;;;5030923;28;20590;-52
2022/05/02 01:54:17;;;;;;;15.95;13.70;;;8.80;99.90;;;;;;5031098;28;20373;-53
2022/05/02 01:56:44;;;;;;;13.48;12.18;;;8.80;99.90;;;;;;5031032;28;20041;-55
2022/05/02 01:59:10;;;;;;;13.93;12.52;;;8.80;99.90;;;;;;5030934;28;20032;-51
2022/05/02 02:01:36;;;;;;;13.88;12.35;;;8.80;99.90;;;;;;5033768;28;20102;-52
2022/05/02 02:06:48;;;;;;;14.38;12.50;;;8.80;99.90;;;;;;5034797;28;20075;-52
2022/05/02 02:09:13;;;;;;;16.23;13.77;;;8.80;99.90;;;;;;5034463;28;20034;-53
2022/05/02 02:11:39;;;;;;;20.50;13.70;;;8.80;99.90;;;;;;5033381;28;20029;-52
2022/05/02 02:14:05;;;;;;;21.13;12.80;;;8.80;99.90;;;;;;5034253;28;20124;-50
2022/05/02 02:16:30;;;;;;;20.10;13.52;;;8.80;99.90;;;;;;5034413;28;20029;-53
2022/05/02 02:18:56;;;;;;;18.73;13.30;;;8.90;99.90;;;;;;5034246;28;20030;-52
2022/05/02 02:21:21;;;;;;;21.50;13.70;;;8.90;99.90;;;;;;5034236;28;20042;-52
2022/05/02 02:23:47;;;;;;;17.13;13.48;;;8.90;99.90;;;;;;5034497;28;20044;-50
2022/05/02 02:26:13;;;;;;;18.73;12.65;;;8.90;99.90;;;;;;5034390;28;20044;-51
2022/05/02 02:28:39;;;;;;;18.13;13.48;;;8.90;99.90;;;;;;5034149;28;20033;-52
2022/05/02 02:31:05;;;;;;;16.60;12.27;;;9.00;99.90;;;;;;5034357;28;20091;-52
2022/05/02 02:33:30;;;;;;;28.10;12.93;;;9.00;99.90;;;;;;5033997;28;20688;-50
2022/05/02 02:35:56;;;;;;;15.23;13.48;;;9.00;99.90;;;;;;5034259;28;20018;-50
2022/05/02 02:38:22;;;;;;;17.38;13.52;;;9.00;99.90;;;;;;5033895;28;20032;-51
2022/05/02 02:40:48;;;;;;;18.35;14.40;;;9.00;99.90;;;;;;5034131;28;20350;-53
2022/05/02 02:43:13;;;;;;;15.35;13.73;;;9.00;99.90;;;;;;5033801;28;20029;-56
2022/05/02 02:45:39;;;;;;;26.35;21.63;;;9.00;99.90;;;;;;5033819;28;20104;-57
2022/05/02 02:48:05;;;;;;;17.75;15.00;;;9.00;99.90;;;;;;5033938;28;20029;-56
2022/05/02 02:50:31;;;;;;;17.55;15.68;;;9.00;99.90;;;;;;5033062;28;20029;-53
2022/05/02 02:52:57;;;;;;;18.55;14.90;;;9.00;99.90;;;;;;5033208;28;20615;-53
2022/05/02 02:55:22;;;;;;;19.98;15.20;;;8.90;99.90;;;;;;5033160;28;20029;-56
2022/05/02 02:57:48;;;;;;;24.50;16.17;;;8.80;99.90;;;;;;5032701;28;20022;-55
2022/05/02 03:00:14;;;;;;;20.20;13.27;;;8.80;99.90;;;;;;5032539;28;20032;-57
2022/05/02 03:02:41;;;;;;;19.30;14.63;;;8.80;99.90;;;;;;5032401;28;20021;-55
2022/05/02 03:07:52;;;;;;;17.52;14.30;;;8.70;99.90;;;;;;5033265;28;20036;-55
2022/05/02 03:10:18;;;;;;;15.20;13.40;;;8.60;99.90;;;;;;5032819;28;20025;-53
2022/05/02 03:12:45;;;;;;;15.27;13.43;;;8.40;99.90;;;;;;5032720;28;20033;-57
2022/05/02 03:15:10;;;;;;;16.27;14.43;;;8.40;99.90;;;;;;5032808;28;20057;-55
2022/05/02 03:17:36;;;;;;;14.98;12.43;;;8.20;99.90;;;;;;5032696;28;20025;-56
2022/05/02 03:20:02;;;;;;;16.42;12.90;;;8.10;99.90;;;;;;5032754;28;20079;-56
2022/05/02 03:22:27;;;;;;;14.70;11.85;;;8.00;99.90;;;;;;5033252;28;20491;-55
2022/05/02 03:24:53;;;;;;;18.60;14.35;;;8.00;99.90;;;;;;5032983;28;20113;-56
2022/05/02 03:27:19;;;;;;;17.67;13.70;;;7.90;99.90;;;;;;5032083;28;20428;-52
2022/05/02 03:29:44;;;;;;;20.23;14.75;;;7.90;99.90;;;;;;5031842;28;20025;-53
2022/05/02 03:32:10;;;;;;;19.50;16.13;;;7.90;99.90;;;;;;5031649;28;20382;-54
2022/05/02 03:34:36;;;;;;;20.02;15.10;;;7.90;99.90;;;;;;5031714;28;20029;-52
2022/05/02 03:37:02;;;;;;;20.98;15.48;;;7.90;99.90;;;;;;5031743;28;20017;-52
2022/05/02 03:39:28;;;;;;;21.98;16.48;;;8.00;99.90;;;;;;5031322;28;20030;-51
2022/05/02 03:41:54;;;;;;;23.17;16.88;;;7.90;99.90;;;;;;5031824;28;20471;-48
2022/05/02 03:44:20;;;;;;;19.10;15.63;;;7.90;99.90;;;;;;5031278;28;20017;-48
2022/05/02 03:46:46;;;;;;;26.02;18.80;;;8.00;99.90;;;;;;5031594;28;20024;-53
2022/05/02 03:49:12;;;;;;;21.48;16.27;;;7.90;99.90;;;;;;5032372;28;20034;-52
2022/05/02 03:51:37;;;;;;;21.30;16.52;;;8.00;99.90;;;;;;5031964;28;20049;-50
2022/05/02 03:54:03;;;;;;;21.13;15.10;;;8.00;99.90;;;;;;5031267;28;20025;-53
2022/05/02 03:56:29;;;;;;;22.02;15.32;;;8.00;99.90;;;;;;5032530;28;20361;-48
2022/05/02 03:58:55;;;;;;;20.40;15.93;;;8.00;99.90;;;;;;5032499;28;20056;-55
2022/05/02 04:01:20;;;;;;;20.23;14.75;;;8.00;99.90;;;;;;5032453;28;20494;-52
2022/05/02 04:03:46;;;;;;;16.98;13.85;;;7.90;99.90;;;;;;5032301;28;20021;-55
2022/05/02 04:06:13;;;;;;;15.93;13.68;;;7.90;99.90;;;;;;5032237;28;20021;-51
2022/05/02 04:08:39;;;;;;;18.05;13.55;;;7.90;99.90;;;;;;5032198;28;20026;-55
2022/05/02 04:11:04;;;;;;;17.08;13.15;;;7.90;99.90;;;;;;5032150;28;20095;-50
2022/05/02 04:13:30;;;;;;;16.23;14.27;;;7.90;99.90;;;;;;5030733;28;20068;-54
2022/05/02 04:15:56;;;;;;;16.58;14.20;;;7.90;99.90;;;;;;5032197;28;20049;-52
2022/05/02 04:18:21;;;;;;;19.45;14.75;;;8.00;99.90;;;;;;5031985;28;20025;-50
2022/05/02 04:20:47;;;;;;;16.52;14.68;;;8.00;99.90;;;;;;5032193;28;20026;-54
2022/05/02 04:23:14;;;;;;;20.00;15.88;;;8.00;99.90;;;;;;5031005;28;20758;-55
2022/05/02 04:25:39;;;;;;;19.05;14.40;;;8.00;99.90;;;;;;5031670;28;20064;-54
2022/05/02 04:28:07;;;;;;;18.88;15.82;;;8.00;99.90;;;;;;5032096;28;20029;-55
2022/05/02 04:30:32;;;;;;;16.95;15.15;;;8.00;99.90;;;;;;5031984;28;20410;-52
2022/05/02 04:32:58;;;;;;;21.58;15.60;;;8.10;99.90;;;;;;5032272;28;20033;-51
2022/05/02 04:35:24;;;;;;;19.23;15.55;;;8.20;99.90;;;;;;5031836;28;20068;-53
2022/05/02 04:37:49;;;;;;;19.05;15.73;;;8.20;99.90;;;;;;5031750;28;20056;-51
2022/05/02 04:40:15;;;;;;;28.88;18.17;;;8.30;99.90;;;;;;5029228;28;20029;-51
2022/05/02 04:42:40;;;;;;;19.95;15.90;;;8.40;99.90;;;;;;5029999;28;20028;-52
2022/05/02 04:45:06;;;;;;;20.50;16.73;;;8.40;99.90;;;;;;5030767;28;20508;-55
2022/05/02 04:47:32;;;;;;;20.13;17.00;;;8.50;99.90;;;;;;5031193;28;20071;-53
2022/05/02 04:49:58;;;;;;;21.85;17.05;;;8.60;99.90;;;;;;5031427;28;20380;-53
2022/05/02 04:52:23;;;;;;;22.95;16.27;;;8.60;99.90;;;;;;5031136;28;20100;-54
2022/05/02 04:54:49;;;;;;;23.98;16.75;;;8.70;99.90;;;;;;5031539;28;20017;-54
2022/05/02 04:57:15;;;;;;;28.90;16.13;;;8.80;99.90;;;;;;5031315;28;20021;-55
2022/05/02 04:59:40;;;;;;;20.00;16.10;;;8.80;99.90;;;;;;5030758;28;20476;-52
2022/05/02 05:02:06;;;;;;;21.30;16.83;;;9.00;99.90;;;;;;5031284;28;20496;-54
2022/05/02 05:04:31;;;;;;;19.35;16.77;;;9.10;99.90;;;;;;5031251;28;20025;-51
2022/05/02 05:06:57;;;;;;;21.48;16.48;;;9.10;99.90;;;;;;5031448;28;20418;-55
2022/05/02 05:09:23;;;;;;;21.02;18.35;;;9.30;99.90;;;;;;5031151;28;20041;-54
2022/05/02 05:12:10;;;;;;;17.40;15.35;;;9.40;99.90;;;;;;5031673;28;20033;-52
2022/05/02 05:17:38;;;;;;;17.85;14.15;;;9.40;99.90;;;;;;5031409;28;20052;-51
2022/05/02 05:20:36;;;;;;;21.95;15.30;;;9.60;99.90;;;;;;5030688;28;20728;-53
2022/05/02 05:23:31;;;;;;;18.80;16.75;;;9.60;99.90;;;;;;5030234;28;20042;-55
2022/05/02 05:26:19;;;;;;;17.77;14.77;;;9.60;99.90;;;;;;5030137;28;20034;-54
2022/05/02 05:29:03;;;;;;;16.33;13.80;;;9.80;99.90;;;;;;5031299;28;20112;-54
2022/05/02 05:31:52;;;;;;;19.50;14.63;;;9.80;99.90;;;;;;5031013;28;20484;-52
2022/05/02 05:34:29;;;;;;;19.73;14.25;;;9.90;99.90;;;;;;5030916;28;20025;-54
2022/05/02 05:37:32;;;;;;;16.65;13.75;;;10.10;99.90;;;;;;5034963;28;20017;-55
2022/05/02 05:40:10;;;;;;;21.70;13.30;;;10.40;99.90;;;;;;5033961;28;20033;-53
2022/05/02 05:43:09;;;;;;;17.80;14.15;;;10.80;99.90;;;;;;5035020;28;20030;-52
2022/05/02 05:46:06;;;;;;;16.50;14.13;;;11.10;99.90;;;;;;5034905;28;20793;-56
2022/05/02 05:48:49;;;;;;;23.35;13.80;;;11.20;99.90;;;;;;5034859;28;20057;-55
2022/05/02 05:51:17;;;;;;;13.82;12.07;;;11.50;99.90;;;;;;5035043;28;20384;-54
2022/05/02 05:53:57;;;;;;;16.35;13.30;;;11.70;99.90;;;;;;5034992;28;20025;-50
2022/05/02 05:56:38;;;;;;;19.63;13.70;;;11.80;99.90;;;;;;5034872;28;20229;-55
2022/05/02 05:59:38;;;;;;;19.20;13.88;;;11.90;99.90;;;;;;5034808;28;20029;-53
2022/05/02 06:02:22;;;;;;;19.38;15.63;;;11.90;99.90;;;;;;5034800;28;20026;-54
2022/05/02 06:04:49;;;;;;;;;;;12.10;99.90;;;;;;5034479;28;20518;-54
2022/05/02 06:07:18;;;;;;;17.60;14.45;;;12.30;99.90;;;;;;5034469;28;19905;-53
2022/05/02 06:09:44;;;;;;;20.77;14.32;;;12.40;99.90;;;;;;5034366;28;20108;-53
2022/05/02 06:12:15;;;;;;;24.98;15.57;;;12.60;99.90;;;;;;5034404;28;20026;-51
2022/05/02 06:20:15;;;;;;;22.35;16.75;;;12.90;99.90;;;;;;5034268;28;20079;-57
2022/05/02 06:22:41;;;;;;;19.33;16.20;;;12.80;99.90;;;;;;5034218;28;20030;-56
2022/05/02 06:25:07;;;;;;;19.67;17.58;;;12.70;99.90;;;;;;5034445;28;20025;-56
2022/05/02 06:27:33;;;;;;;22.70;18.70;;;12.80;99.90;;;;;;5034349;28;20075;-57
2022/05/02 06:30:03;;;;;;;20.65;18.00;;;13.00;99.90;;;;;;5034361;28;20409;-55
2022/05/02 06:32:35;;;;;;;19.80;16.88;;;13.20;99.90;;;;;;5033848;28;20094;-56
2022/05/02 06:35:01;;;;;;;20.85;18.13;;;13.40;99.90;;;;;;5033507;28;20029;-53
2022/05/02 06:37:33;;;;;;;23.88;19.33;;;13.50;99.90;;;;;;5033584;28;20021;-53
2022/05/02 06:40:20;;;;;;;20.50;18.33;;;13.70;99.90;;;;;;5033796;28;20460;-52
2022/05/02 06:43:13;;;;;;;25.92;18.88;;;13.80;99.90;;;;;;5033823;28;20026;-54
2022/05/02 06:46:14;;;;;;;19.63;17.45;;;13.90;99.90;;;;;;5033484;28;20032;-54
2022/05/02 06:48:50;;;;;;;22.17;16.38;;;14.10;99.90;;;;;;5033378;28;20048;-52
2022/05/02 06:51:28;;;;;;;22.73;19.25;;;14.20;99.90;;;;;;5033943;28;20029;-54
2022/05/02 06:54:26;;;;;;;21.45;17.92;;;14.30;99.90;;;;;;5033837;28;20034;-52
2022/05/02 06:57:00;;;;;;;27.95;21.08;;;14.50;99.90;;;;;;5033702;28;20021;-53
2022/05/02 06:59:36;;;;;;;27.63;22.95;;;14.50;99.90;;;;;;5033434;28;20495;-53
2022/05/02 07:02:20;;;;;;;25.00;21.17;;;14.50;99.90;;;;;;5033621;28;20022;-54
2022/05/02 07:04:53;;;;;;;24.88;21.23;;;14.50;99.90;;;;;;5033619;28;20018;-57
2022/05/02 07:07:37;;;;;;;24.70;21.98;;;14.50;99.90;;;;;;5033466;28;20017;-56
2022/05/02 07:10:08;;;;;;;24.65;20.73;;;14.60;99.90;;;;;;5033593;28;20553;-55
2022/05/02 07:13:15;;;;;;;26.75;20.55;;;14.60;99.90;;;;;;5033360;28;20033;-53
2022/05/02 07:15:51;;;;;;;22.65;19.85;;;14.60;99.90;;;;;;5032652;28;20048;-56
2022/05/02 07:18:38;;;;;;;24.52;20.13;;;14.70;99.90;;;;;;5033353;28;20107;-55
2022/05/02 07:21:25;;;;;;;24.42;21.83;;;14.80;99.90;;;;;;5033616;28;20510;-54
2022/05/02 07:24:02;;;;;;;25.50;21.08;;;14.70;99.90;;;;;;5033392;28;20033;-56
2022/05/02 07:26:30;;;;;;;24.88;20.42;;;15.00;99.90;;;;;;5033059;28;20056;-54
2022/05/02 07:29:00;;;;;;;28.27;21.60;;;15.00;99.90;;;;;;5033157;28;20021;-55
2022/05/02 07:31:27;;;;;;;25.85;20.80;;;14.90;99.90;;;;;;5033193;28;20411;-53
2022/05/02 07:33:54;;;;;;;24.95;21.88;;;14.60;99.90;;;;;;5033162;28;20037;-54
2022/05/02 07:36:22;;;;;;;22.92;19.20;;;14.60;99.90;;;;;;5033000;28;20442;-54
2022/05/02 07:38:53;;;;;;;24.02;20.73;;;14.80;99.90;;;;;;5033061;28;20120;-56
2022/05/02 07:41:26;;;;;;;22.55;19.05;;;14.80;99.90;;;;;;5032960;28;20021;-52
2022/05/02 07:44:06;;;;;;;21.08;18.85;;;14.90;99.90;;;;;;5031782;28;20615;-56
2022/05/02 07:46:39;;;;;;;20.15;17.92;;;14.70;99.90;;;;;;5032809;28;20072;-56
2022/05/02 07:49:07;;;;;;;22.80;18.65;;;14.60;99.90;;;;;;5033009;28;20075;-56
2022/05/02 07:51:38;;;;;;;23.88;20.77;;;14.70;99.90;;;;;;5032613;28;20029;-55
2022/05/02 07:54:04;;;;;;;21.95;19.65;;;14.70;99.90;;;;;;5032775;28;20075;-52
2022/05/02 07:56:32;;;;;;;21.52;18.98;;;14.80;99.90;;;;;;5031188;28;20025;-55
2022/05/02 07:58:59;;;;;;;20.35;18.23;;;14.90;99.90;;;;;;5031756;28;20029;-55
2022/05/02 08:01:25;;;;;;;22.15;18.30;;;15.10;99.90;;;;;;5032459;28;20377;-54
2022/05/02 08:03:52;;;;;;;21.83;17.88;;;15.30;99.90;;;;;;5032468;28;20025;-56
2022/05/02 08:06:21;;;;;;;26.25;19.23;;;15.20;99.90;;;;;;5032420;28;20022;-57
2022/05/02 08:09:08;;;;;;;24.05;19.58;;;15.20;99.90;;;;;;5032439;28;20028;-56
2022/05/02 08:11:43;;;;;;;27.23;22.85;;;15.30;99.90;;;;;;5030804;28;20045;-54
2022/05/02 08:14:25;;;;;;;23.13;20.40;;;15.50;99.90;;;;;;5032252;28;20124;-55
2022/05/02 08:17:03;;;;;;;26.42;19.50;;;15.50;99.90;;;;;;5032427;28;20025;-56
2022/05/02 08:19:35;;;;;;;27.67;19.75;;;15.40;99.90;;;;;;5031971;28;20022;-54
2022/05/02 08:28:36;;;;;;;22.48;18.10;;;15.60;99.90;;;;;;5030775;28;20076;-57
2022/05/02 08:31:07;;;;;;;;;;;15.70;99.90;;;;;;5032387;28;20029;-52
2022/05/02 08:33:35;;;;;;;22.40;16.63;;;15.70;99.90;;;;;;5031950;28;19905;-54
2022/05/02 08:36:08;;;;;;;20.52;18.35;;;15.90;99.90;;;;;;5032038;28;20109;-57
2022/05/02 08:38:55;;;;;;;20.35;16.95;;;15.90;99.90;;;;;;5031966;28;20411;-55
2022/05/02 08:41:23;;;;;;;19.08;16.80;;;16.00;99.90;;;;;;5031544;28;20029;-56
2022/05/02 08:44:01;;;;;;;19.63;17.52;;;15.90;99.90;;;;;;5031873;28;20421;-56
2022/05/02 08:46:41;;;;;;;18.25;14.70;;;16.00;99.90;;;;;;5031735;28;20453;-54
2022/05/02 08:49:44;;;;;;;17.15;15.35;;;16.30;99.90;;;;;;5031833;28;20113;-51
2022/05/02 08:52:22;;;;;;;21.75;15.30;;;16.30;99.90;;;;;;5031736;28;20033;-54
2022/05/02 08:55:42;;;;;;;15.63;13.93;;;16.20;99.90;;;;;;5031783;28;20025;-57
2022/05/02 08:58:19;;;;;;;25.90;16.20;;;16.40;99.90;;;;;;5028820;28;20060;-56
2022/05/02 09:01:16;;;;;;;18.85;16.55;;;16.40;99.90;;;;;;5031154;28;20381;-56
2022/05/02 09:03:53;;;;;;;19.85;16.92;;;16.60;99.90;;;;;;5031594;28;20025;-55
2022/05/02 09:06:52;;;;;;;19.20;15.73;;;16.90;99.90;;;;;;5031536;28;20017;-56
2022/05/02 09:09:39;;;;;;;17.48;15.38;;;17.10;99.90;;;;;;5031183;28;20101;-57
2022/05/02 09:12:14;;;;;;;17.00;15.27;;;16.80;99.90;;;;;;5031400;28;20021;-56
2022/05/02 09:15:01;;;;;;;21.67;15.82;;;16.70;99.90;;;;;;5031037;28;20447;-55
2022/05/02 09:17:29;;;;;;;22.10;15.30;;;17.00;99.90;;;;;;5031343;28;20044;-56
2022/05/02 09:20:07;;;;;;;18.73;15.38;;;17.60;99.90;;;;;;5031341;28;20108;-55
2022/05/02 09:22:52;;;;;;;17.48;14.05;;;17.60;99.90;;;;;;5031248;28;20025;-57
2022/05/02 09:25:33;;;;;;;19.65;15.82;;;17.80;99.90;;;;;;5031429;28;20615;-57
2022/05/02 09:28:17;;;;;;;19.88;14.68;;;17.40;99.90;;;;;;5030082;28;20030;-56
2022/05/02 09:31:11;;;;;;;27.58;16.25;;;17.50;99.90;;;;;;5030911;28;20121;-55
2022/05/02 09:33:44;;;;;;;19.00;15.60;;;17.50;99.90;;;;;;5029839;28;20034;-55
2022/05/02 09:36:19;;;;;;;16.58;14.73;;;17.80;99.90;;;;;;5037886;28;20028;-58
2022/05/02 09:38:50;;;;;;;20.30;16.13;;;18.20;99.90;;;;;;5048878;28;20033;-57
2022/05/02 09:41:40;;;;;;;20.52;15.57;;;18.30;98.80;;;;;;5050457;28;20071;-57
2022/05/02 09:50:10;;;;;;;18.50;15.85;;;18.30;97.80;;;;;;5041929;28;20041;-55
2022/05/02 09:52:54;;;;;;;21.30;14.55;;;18.20;98.50;;;;;;5050381;28;20033;-49
2022/05/02 09:58:36;;;;;;;16.98;13.77;;;19.30;98.10;;;;;;5050877;28;20051;-53
2022/05/02 10:01:21;;;;;;;18.88;15.65;;;19.70;97.50;;;;;;5050990;28;20535;-52
2022/05/02 10:03:53;;;;;;;15.35;13.75;;;19.60;96.00;;;;;;5050996;28;20021;-57
2022/05/02 10:06:25;;;;;;;15.48;13.88;;;19.60;97.20;;;;;;5050853;28;20059;-56
2022/05/02 10:09:00;;;;;;;14.85;12.85;;;19.70;95.90;;;;;;5050945;28;20029;-56
2022/05/02 10:11:56;;;;;;;20.23;13.13;;;19.50;96.70;;;;;;5050848;28;20037;-57
2022/05/02 10:14:35;;;;;;;13.15;11.65;;;19.50;96.00;;;;;;5050430;28;20073;-56
2022/05/02 10:17:07;;;;;;;13.70;11.60;;;19.60;93.50;;;;;;5050766;28;20025;-56
2022/05/02 10:20:00;;;;;;;14.93;12.32;;;19.80;94.50;;;;;;5050091;28;20033;-55
2022/05/02 10:23:03;;;;;;;26.95;14.57;;;19.90;91.80;;;;;;5052632;28;20028;-56
2022/05/02 10:26:01;;;;;;;16.55;14.63;;;20.20;93.90;;;;;;5054165;28;20215;-58
2022/05/02 10:28:45;;;;;;;15.18;13.57;;;20.10;92.80;;;;;;5054276;28;20028;-56
2022/05/02 10:31:21;;;;;;;19.95;13.45;;;19.40;92.60;;;;;;5054382;28;20029;-56
2022/05/02 10:33:51;;;;;;;15.35;13.75;;;19.40;93.30;;;;;;5054224;28;20163;-52
2022/05/02 10:36:20;;;;;;;16.35;13.85;;;19.10;93.10;;;;;;5054043;28;20032;-55
2022/05/02 10:38:52;;;;;;;16.73;15.02;;;18.80;95.50;;;;;;5053983;28;20060;-55
2022/05/02 10:41:35;;;;;;;18.37;15.47;;;19.10;95.80;;;;;;5054002;28;20369;-55
2022/05/02 10:44:05;;;;;;;21.05;16.52;;;18.90;95.10;;;;;;5054124;28;20400;-54
2022/05/02 10:46:32;;;;;;;21.08;17.92;;;19.00;95.80;;;;;;5053761;28;20048;-55
2022/05/02 10:49:12;;;;;;;20.92;17.58;;;19.00;96.60;;;;;;5053968;28;20021;-53
2022/05/02 10:51:39;;;;;;;19.33;15.93;;;19.10;96.30;;;;;;5053569;28;20083;-51
2022/05/02 10:54:11;;;;;;;20.10;17.73;;;19.40;95.40;;;;;;5052520;28;20021;-57
2022/05/02 10:56:45;;;;;;;18.60;16.75;;;19.50;96.00;;;;;;5053740;28;20424;-54
2022/05/02 10:59:16;;;;;;;19.42;16.02;;;19.80;95.10;;;;;;5053673;28;20055;-57
2022/05/02 11:02:01;;;;;;;16.77;15.07;;;20.00;95.10;;;;;;5052416;28;20032;-56
2022/05/02 11:05:05;;;;;;;15.90;12.82;;;19.90;94.00;;;;;;5053418;28;20465;-55
2022/05/02 11:07:49;;;;;;;13.57;12.20;;;19.70;92.20;;;;;;5053378;28;20029;-56
2022/05/02 11:10:19;;;;;;;13.48;12.07;;;19.60;93.00;;;;;;5053542;28;20456;-55
2022/05/02 11:13:02;;;;;;;16.63;13.45;;;19.30;92.50;;;;;;5053538;28;20044;-54
2022/05/02 11:15:43;;;;;;;17.50;14.13;;;19.40;93.80;;;;;;5053264;28;20073;-55
2022/05/02 11:21:18;;;;;;;15.48;13.88;;;19.30;94.30;;;;;;5053346;28;20391;-53
2022/05/02 11:24:05;;;;;;;14.90;12.23;;;19.20;93.00;;;;;;5053281;28;20024;-54
2022/05/02 11:26:55;;;;;;;18.48;14.35;;;19.10;93.50;;;;;;5053018;28;20017;-53
2022/05/02 11:29:39;;;;;;;18.67;13.88;;;19.60;93.00;;;;;;5053064;28;20024;-55
2022/05/02 11:32:06;;;;;;;;;;;19.70;93.30;;;;;;5053217;28;20108;-56
2022/05/02 11:34:50;;;;;;;12.95;9.88;;;19.80;92.70;;;;;;5052209;28;20336;-57
2022/05/02 11:37:34;;;;;;;13.00;10.43;;;20.20;93.20;;;;;;5053043;28;20075;-56
2022/05/02 11:40:18;;;;;;;12.20;9.68;;;19.80;91.80;;;;;;5052883;28;20095;-56
2022/05/02 11:42:47;;;;;;;10.68;8.07;;;19.70;92.80;;;;;;5052875;28;20048;-54
2022/05/02 11:45:17;;;;;;;8.98;8.07;;;20.00;93.90;;;;;;5051594;28;20501;-55
2022/05/02 11:47:54;;;;;;;11.35;8.40;;;20.30;91.90;;;;;;5052731;28;20151;-56
2022/05/02 11:50:22;;;;;;;12.30;8.38;;;20.30;91.90;;;;;;5052803;28;20033;-55
2022/05/02 11:52:52;;;;;;;9.18;7.85;;;20.80;90.50;;;;;;5052800;28;20032;-56
2022/05/02 11:55:25;;;;;;;9.88;8.85;;;21.40;90.60;;;;;;5052609;28;20025;-53
2022/05/02 11:57:53;;;;;;;9.18;8.02;;;21.00;87.60;;;;;;5052740;28;20108;-53
2022/05/02 12:00:19;;;;;;;12.43;7.47;;;20.80;87.50;;;;;;5052500;28;20031;-57
2022/05/02 12:02:48;;;;;;;9.75;8.75;;;20.40;90.10;;;;;;5052429;28;20025;-54
2022/05/02 12:05:42;;;;;;;12.88;9.82;;;20.20;90.80;;;;;;5052470;28;20017;-56
2022/05/02 12:08:09;;;;;;;;;;;19.90;91.90;;;;;;5053053;28;20052;-55
2022/05/02 12:10:45;;;;;;;14.55;9.73;;;19.60;92.60;;;;;;5052132;28;19904;-55
2022/05/02 12:13:13;;;;;;;11.43;10.20;;;19.60;92.40;;;;;;5050638;28;20029;-57
2022/05/02 12:15:54;;;;;;;54.22;35.90;;;19.30;92.60;;;;;;5051754;28;20154;-56
2022/05/02 12:18:20;;;;;;;50.38;23.30;;;19.00;92.90;;;;;;5052195;28;20037;-57
2022/05/02 12:20:56;;;;;;;20.52;12.70;;;19.00;93.50;;;;;;5052002;28;20541;-56
2022/05/02 12:23:30;;;;;;;34.83;18.77;;;19.10;94.70;;;;;;5052040;28;20021;-55
2022/05/02 12:25:57;;;;;;;50.58;43.72;;;19.20;94.40;;;;;;5051995;28;20426;-56
2022/05/02 12:28:43;;;;;;;19.48;10.60;;;19.20;93.70;;;;;;5051812;28;20099;-58
2022/05/02 12:31:14;;;;;;;17.88;11.57;;;19.40;94.40;;;;;;5052011;28;20535;-55
2022/05/02 12:33:43;;;;;;;15.35;11.10;;;19.40;93.90;;;;;;5051799;28;20062;-52
2022/05/02 12:36:16;;;;;;;13.35;8.48;;;19.60;92.60;;;;;;5051955;28;20028;-56
2022/05/02 12:38:50;;;;;;;;;;;20.00;92.90;;;;;;5052197;28;20411;-55
2022/05/02 12:41:21;;;;;;;8.63;7.67;;;20.30;93.20;;;;;;5051875;28;19909;-55
2022/05/02 12:43:51;;;;;;;11.40;9.23;;;20.30;91.40;;;;;;5051357;28;20255;-56
2022/05/02 12:46:21;;;;;;;10.85;8.43;;;20.10;92.30;;;;;;5051707;28;20159;-57
2022/05/02 12:48:55;;;;;;;13.40;8.35;;;20.10;92.30;;;;;;5051740;28;20025;-55
2022/05/02 12:51:27;;;;;;;9.57;7.90;;;19.90;91.90;;;;;;5051526;28;20023;-57
2022/05/02 12:54:14;;;;;;;9.98;7.13;;;19.80;91.50;;;;;;5051804;28;20484;-55
2022/05/02 13:02:45;;;;;;;10.98;8.25;;;20.70;89.40;;;;;;5051392;28;20081;-56
2022/05/02 13:05:13;;;;;;;6.63;6.03;;;20.80;88.50;;;;;;5051471;28;20013;-56
2022/05/02 13:07:48;;;;;;;11.10;6.50;;;21.10;86.50;;;;;;5051416;28;20033;-57
2022/05/02 13:10:19;;;;;;;7.88;7.07;;;21.10;90.10;;;;;;5051572;28;20033;-56
2022/05/02 13:13:04;;;;;;;11.50;7.13;;;21.30;89.00;;;;;;5051518;28;20047;-55
2022/05/02 13:15:53;;;;;;;11.90;7.30;;;21.30;87.30;;;;;;5051147;28;20550;-57
2022/05/02 13:18:20;;;;;;;8.50;6.82;;;21.20;87.80;;;;;;5049802;28;20040;-54
2022/05/02 13:21:04;;;;;;;11.23;6.30;;;21.20;88.10;;;;;;5051082;28;20029;-56
2022/05/02 13:23:42;;;;;;;7.00;5.80;;;21.40;89.00;;;;;;5051356;28;20021;-52
2022/05/02 13:26:37;;;;;;;5.60;4.97;;;22.10;89.00;;;;;;5051433;28;20021;-56
2022/05/02 13:29:17;;;;;;;9.52;5.40;;;23.10;82.20;;;;;;5051259;28;20036;-53
2022/05/02 13:32:03;;;;;;;9.55;4.88;;;24.30;76.20;;;;;;5051217;28;20025;-57
2022/05/02 13:34:35;;;;;;;8.27;4.65;;;25.10;70.50;;;;;;5051048;28;20021;-55
2022/05/02 13:37:12;;;;;;;7.32;5.10;;;24.50;64.70;;;;;;5051347;28;20029;-58
2022/05/02 13:39:51;;;;;;;6.13;4.40;;;23.90;67.60;;;;;;5050961;28;20037;-58
2022/05/02 13:42:38;;;;;;;6.30;3.60;;;24.10;66.80;;;;;;5050259;28;20424;-53
2022/05/02 13:45:13;;;;;;;4.00;3.22;;;24.90;64.70;;;;;;5051015;28;20120;-58
2022/05/02 13:47:49;;;;;;;4.78;3.22;;;26.20;61.00;;;;;;5050898;28;20542;-58